Aviation Digital Data Service (ADDS)

Output produced by METARs form (1343 UTC 24 August 2019)
found at http://www.aviationweather.gov/metar/data/
 
METAR text: LFKF 241330Z AUTO 05009KT 010V120 CAVOK 29/19 Q1016 TEMPO TS FEW035CB BKN045 BKN100
Conditions at: LFKF (FIGARI (AUT) , FR) observed 1330 UTC 24 August 2019
Temperature: 29.0°C (84°F)
Dewpoint: 19.0°C (66°F) [RH = 55%]
Pressure (altimeter): 30.00 inches Hg (1016.0 mb)
Winds: from the NE (50 degrees) at 10 MPH (9 knots; 4.6 m/s)
Visibility: 6 or more miles (10+ km)
Ceiling: ceiling and visibility are OK
Clouds: unknown
Weather: no significant weather observed at this time

METAR text: LFKF 241300Z AUTO 06011KT 030V100 CAVOK 29/19 Q1016 TEMPO TS SCT030CB BKN040 BKN090
Conditions at: LFKF (FIGARI (AUT) , FR) observed 1300 UTC 24 August 2019
Temperature: 29.0°C (84°F)
Dewpoint: 19.0°C (66°F) [RH = 55%]
Pressure (altimeter): 30.00 inches Hg (1016.0 mb)
Winds: from the ENE (60 degrees) at 13 MPH (11 knots; 5.7 m/s)
Visibility: 6 or more miles (10+ km)
Ceiling: ceiling and visibility are OK
Clouds: unknown
Weather: no significant weather observed at this time

METAR text: LFKF 241230Z AUTO 05014KT 020V080 9999 ///CB 30/19 Q1017 TEMPO TS
Conditions at: LFKF (FIGARI (AUT) , FR) observed 1230 UTC 24 August 2019
Temperature: 30.0°C (86°F)
Dewpoint: 19.0°C (66°F) [RH = 52%]
Pressure (altimeter): 30.03 inches Hg (1017.0 mb)
Winds: from the NE (50 degrees) at 16 MPH (14 knots; 7.2 m/s)
Visibility: 6 or more miles (10+ km)
Ceiling: unknown
Clouds: missing
Weather: no significant weather observed at this time

METAR text: LFKF 241200Z AUTO 05013KT 020V100 9999 SCT043/// SCT068/// BKN110/// ///CB 31/18 Q1016 TEMPO TS
Conditions at: LFKF (FIGARI (AUT) , FR) observed 1200 UTC 24 August 2019
Temperature: 31.0°C (88°F)
Dewpoint: 18.0°C (64°F) [RH = 46%]
Pressure (altimeter): 30.00 inches Hg (1016.0 mb)
Winds: from the NE (50 degrees) at 15 MPH (13 knots; 6.7 m/s)
Visibility: 6 or more miles (10+ km)
Ceiling: 11000 feet AGL
Clouds: scattered clouds at 4300 feet AGL
scattered clouds at 6800 feet AGL
broken clouds at 11000 feet AGL
Weather: no significant weather observed at this time

METAR text: LFKF 241130Z AUTO 09010KT 050V150 9999 FEW038/// ///CB 31/19 Q1017 TEMPO TS
Conditions at: LFKF (FIGARI (AUT) , FR) observed 1130 UTC 24 August 2019
Temperature: 31.0°C (88°F)
Dewpoint: 19.0°C (66°F) [RH = 49%]
Pressure (altimeter): 30.03 inches Hg (1017.0 mb)
Winds: from the E (90 degrees) at 12 MPH (10 knots; 5.1 m/s)
Visibility: 6 or more miles (10+ km)
Ceiling: at least 12,000 feet AGL
Clouds: few clouds at 3800 feet AGL
Weather: no significant weather observed at this time

METAR text: LFKF 241100Z AUTO 06010KT 020V140 9999 FEW052/// BKN120/// ///CB 31/16 Q1017 TEMPO TS
Conditions at: LFKF (FIGARI (AUT) , FR) observed 1100 UTC 24 August 2019
Temperature: 31.0°C (88°F)
Dewpoint: 16.0°C (61°F) [RH = 40%]
Pressure (altimeter): 30.03 inches Hg (1017.0 mb)
Winds: from the ENE (60 degrees) at 12 MPH (10 knots; 5.1 m/s)
Visibility: 6 or more miles (10+ km)
Ceiling: 12000 feet AGL
Clouds: few clouds at 5200 feet AGL
broken clouds at 12000 feet AGL
Weather: no significant weather observed at this time

METAR text: LFKF 241030Z AUTO 08010KT 040V120 9999 FEW054/// ///TCU 31/17 Q1017 TEMPO TS SCT030CB BKN040 BKN090
Conditions at: LFKF (FIGARI (AUT) , FR) observed 1030 UTC 24 August 2019
Temperature: 31.0°C (88°F)
Dewpoint: 17.0°C (63°F) [RH = 43%]
Pressure (altimeter): 30.03 inches Hg (1017.0 mb)
Winds: from the E (80 degrees) at 12 MPH (10 knots; 5.1 m/s)
Visibility: 6 or more miles (10+ km)
Ceiling: at least 12,000 feet AGL
Clouds: few clouds at 5400 feet AGL
Weather: no significant weather observed at this time

METAR text: LFKF 241000Z AUTO 07009KT 020V140 9999 FEW060 31/17 Q1017 TEMPO TS SCT030CB BKN040 BKN090
Conditions at: LFKF (FIGARI (AUT) , FR) observed 1000 UTC 24 August 2019
Temperature: 31.0°C (88°F)
Dewpoint: 17.0°C (63°F) [RH = 43%]
Pressure (altimeter): 30.03 inches Hg (1017.0 mb)
Winds: from the ENE (70 degrees) at 10 MPH (9 knots; 4.6 m/s)
Visibility: 6 or more miles (10+ km)
Ceiling: at least 12,000 feet AGL
Clouds: few clouds at 6000 feet AGL
Weather: no significant weather observed at this time

METAR text: LFKF 240930Z AUTO 09007KT 020V140 9999 FEW054 31/16 Q1017 TEMPO TS SCT030CB BKN040 BKN090
Conditions at: LFKF (FIGARI (AUT) , FR) observed 0930 UTC 24 August 2019
Temperature: 31.0°C (88°F)
Dewpoint: 16.0°C (61°F) [RH = 40%]
Pressure (altimeter): 30.03 inches Hg (1017.0 mb)
Winds: from the E (90 degrees) at 8 MPH (7 knots; 3.6 m/s)
Visibility: 6 or more miles (10+ km)
Ceiling: at least 12,000 feet AGL
Clouds: few clouds at 5400 feet AGL
Weather: no significant weather observed at this time

METAR text: LFKF 240900Z AUTO 09008KT 040V150 9999 FEW056 31/16 Q1017 TEMPO FEW035CB BKN045 BKN100
Conditions at: LFKF (FIGARI (AUT) , FR) observed 0900 UTC 24 August 2019
Temperature: 31.0°C (88°F)
Dewpoint: 16.0°C (61°F) [RH = 40%]
Pressure (altimeter): 30.03 inches Hg (1017.0 mb)
Winds: from the E (90 degrees) at 9 MPH (8 knots; 4.1 m/s)
Visibility: 6 or more miles (10+ km)
Ceiling: at least 12,000 feet AGL
Clouds: few clouds at 5600 feet AGL
Weather: no significant weather observed at this time

METAR text: LFKF 240830Z AUTO 07006KT 020V140 CAVOK 30/16 Q1017 TEMPO FEW035CB BKN045 BKN100
Conditions at: LFKF (FIGARI (AUT) , FR) observed 0830 UTC 24 August 2019
Temperature: 30.0°C (86°F)
Dewpoint: 16.0°C (61°F) [RH = 43%]
Pressure (altimeter): 30.03 inches Hg (1017.0 mb)
Winds: from the ENE (70 degrees) at 7 MPH (6 knots; 3.1 m/s)
Visibility: 6 or more miles (10+ km)
Ceiling: ceiling and visibility are OK
Clouds: unknown
Weather: no significant weather observed at this time

METAR text: LFKF 240800Z AUTO 08007KT 030V120 CAVOK 30/16 Q1017 NOSIG
Conditions at: LFKF (FIGARI (AUT) , FR) observed 0800 UTC 24 August 2019
Temperature: 30.0°C (86°F)
Dewpoint: 16.0°C (61°F) [RH = 43%]
Pressure (altimeter): 30.03 inches Hg (1017.0 mb)
Winds: from the E (80 degrees) at 8 MPH (7 knots; 3.6 m/s)
Visibility: 6 or more miles (10+ km)
Ceiling: ceiling and visibility are OK
Clouds: unknown
Weather: no significant weather observed at this time

METAR text: LFKF 240730Z AUTO 09006KT 050V150 9999 FEW048 29/17 Q1017 NOSIG
Conditions at: LFKF (FIGARI (AUT) , FR) observed 0730 UTC 24 August 2019
Temperature: 29.0°C (84°F)
Dewpoint: 17.0°C (63°F) [RH = 48%]
Pressure (altimeter): 30.03 inches Hg (1017.0 mb)
Winds: from the E (90 degrees) at 7 MPH (6 knots; 3.1 m/s)
Visibility: 6 or more miles (10+ km)
Ceiling: at least 12,000 feet AGL
Clouds: few clouds at 4800 feet AGL
Weather: no significant weather observed at this time

METAR text: LFKF 240700Z AUTO 08004KT 020V140 CAVOK 28/17 Q1017 NOSIG
Conditions at: LFKF (FIGARI (AUT) , FR) observed 0700 UTC 24 August 2019
Temperature: 28.0°C (82°F)
Dewpoint: 17.0°C (63°F) [RH = 51%]
Pressure (altimeter): 30.03 inches Hg (1017.0 mb)
Winds: from the E (80 degrees) at 5 MPH (4 knots; 2.1 m/s)
Visibility: 6 or more miles (10+ km)
Ceiling: ceiling and visibility are OK
Clouds: unknown
Weather: no significant weather observed at this time

METAR text: LFKF 240630Z AUTO 06005KT 030V090 CAVOK 25/17 Q1017 NOSIG
Conditions at: LFKF (FIGARI (AUT) , FR) observed 0630 UTC 24 August 2019
Temperature: 25.0°C (77°F)
Dewpoint: 17.0°C (63°F) [RH = 61%]
Pressure (altimeter): 30.03 inches Hg (1017.0 mb)
Winds: from the ENE (60 degrees) at 6 MPH (5 knots; 2.6 m/s)
Visibility: 6 or more miles (10+ km)
Ceiling: ceiling and visibility are OK
Clouds: unknown
Weather: no significant weather observed at this time

METAR text: LFKF 240600Z AUTO 00000KT 9999 FEW042 SCT110 21/17 Q1017 TEMPO FEW035CB BKN050 BECMG 05010KT
Conditions at: LFKF (FIGARI (AUT) , FR) observed 0600 UTC 24 August 2019
Temperature: 21.0°C (70°F)
Dewpoint: 17.0°C (63°F) [RH = 78%]
Pressure (altimeter): 30.03 inches Hg (1017.0 mb)
Winds: calm
Visibility: 6 or more miles (10+ km)
Ceiling: at least 12,000 feet AGL
Clouds: few clouds at 4200 feet AGL
scattered clouds at 11000 feet AGL
Weather: no significant weather observed at this time

METAR text: LFKF 240530Z AUTO 01003KT CAVOK 19/16 Q1017 TEMPO FEW035CB BKN050
Conditions at: LFKF (FIGARI (AUT) , FR) observed 0530 UTC 24 August 2019
Temperature: 19.0°C (66°F)
Dewpoint: 16.0°C (61°F) [RH = 83%]
Pressure (altimeter): 30.03 inches Hg (1017.0 mb)
Winds: from the N (10 degrees) at 3 MPH (3 knots; 1.5 m/s)
Visibility: 6 or more miles (10+ km)
Ceiling: ceiling and visibility are OK
Clouds: unknown
Weather: no significant weather observed at this time

METAR text: LFKF 240500Z AUTO 03003KT CAVOK 17/15 Q1017 TEMPO FEW035CB BKN050
Conditions at: LFKF (FIGARI (AUT) , FR) observed 0500 UTC 24 August 2019
Temperature: 17.0°C (63°F)
Dewpoint: 15.0°C (59°F) [RH = 88%]
Pressure (altimeter): 30.03 inches Hg (1017.0 mb)
Winds: from the NNE (30 degrees) at 3 MPH (3 knots; 1.5 m/s)
Visibility: 6 or more miles (10+ km)
Ceiling: ceiling and visibility are OK
Clouds: unknown
Weather: no significant weather observed at this time

METAR text: LFKF 240430Z AUTO 03003KT CAVOK 18/15 Q1017 TEMPO FEW035CB BKN050
Conditions at: LFKF (FIGARI (AUT) , FR) observed 0430 UTC 24 August 2019
Temperature: 18.0°C (64°F)
Dewpoint: 15.0°C (59°F) [RH = 83%]
Pressure (altimeter): 30.03 inches Hg (1017.0 mb)
Winds: from the NNE (30 degrees) at 3 MPH (3 knots; 1.5 m/s)
Visibility: 6 or more miles (10+ km)
Ceiling: ceiling and visibility are OK
Clouds: unknown
Weather: no significant weather observed at this time

METAR text: LFKF 240400Z AUTO 04003KT CAVOK 18/15 Q1017 TEMPO FEW035CB BKN050
Conditions at: LFKF (FIGARI (AUT) , FR) observed 0400 UTC 24 August 2019
Temperature: 18.0°C (64°F)
Dewpoint: 15.0°C (59°F) [RH = 83%]
Pressure (altimeter): 30.03 inches Hg (1017.0 mb)
Winds: from the NE (40 degrees) at 3 MPH (3 knots; 1.5 m/s)
Visibility: 6 or more miles (10+ km)
Ceiling: ceiling and visibility are OK
Clouds: unknown
Weather: no significant weather observed at this time

METAR text: LFKF 240330Z AUTO VRB03KT 9999 FEW040 19/15 Q1017 TEMPO FEW035CB BKN050
Conditions at: LFKF (FIGARI (AUT) , FR) observed 0330 UTC 24 August 2019
Temperature: 19.0°C (66°F)
Dewpoint: 15.0°C (59°F) [RH = 78%]
Pressure (altimeter): 30.03 inches Hg (1017.0 mb)
Winds: variable direction winds at 3 MPH (3 knots; 1.5 m/s)
Visibility: 6 or more miles (10+ km)
Ceiling: at least 12,000 feet AGL
Clouds: few clouds at 4000 feet AGL
Weather: no significant weather observed at this time

METAR text: LFKF 240300Z AUTO 03004KT CAVOK 20/16 Q1017 TEMPO FEW035CB BKN050
Conditions at: LFKF (FIGARI (AUT) , FR) observed 0300 UTC 24 August 2019
Temperature: 20.0°C (68°F)
Dewpoint: 16.0°C (61°F) [RH = 78%]
Pressure (altimeter): 30.03 inches Hg (1017.0 mb)
Winds: from the NNE (30 degrees) at 5 MPH (4 knots; 2.1 m/s)
Visibility: 6 or more miles (10+ km)
Ceiling: ceiling and visibility are OK
Clouds: unknown
Weather: no significant weather observed at this time

METAR text: LFKF 240230Z AUTO 05004KT CAVOK 20/16 Q1017
Conditions at: LFKF (FIGARI (AUT) , FR) observed 0230 UTC 24 August 2019
Temperature: 20.0°C (68°F)
Dewpoint: 16.0°C (61°F) [RH = 78%]
Pressure (altimeter): 30.03 inches Hg (1017.0 mb)
Winds: from the NE (50 degrees) at 5 MPH (4 knots; 2.1 m/s)
Visibility: 6 or more miles (10+ km)
Ceiling: ceiling and visibility are OK
Clouds: unknown
Weather: no significant weather observed at this time

METAR text: LFKF 240200Z AUTO 04004KT CAVOK 20/16 Q1017
Conditions at: LFKF (FIGARI (AUT) , FR) observed 0200 UTC 24 August 2019
Temperature: 20.0°C (68°F)
Dewpoint: 16.0°C (61°F) [RH = 78%]
Pressure (altimeter): 30.03 inches Hg (1017.0 mb)
Winds: from the NE (40 degrees) at 5 MPH (4 knots; 2.1 m/s)
Visibility: 6 or more miles (10+ km)
Ceiling: ceiling and visibility are OK
Clouds: unknown
Weather: no significant weather observed at this time

METAR text: LFKF 240130Z AUTO 03004KT CAVOK 20/17 Q1017
Conditions at: LFKF (FIGARI (AUT) , FR) observed 0130 UTC 24 August 2019
Temperature: 20.0°C (68°F)
Dewpoint: 17.0°C (63°F) [RH = 83%]
Pressure (altimeter): 30.03 inches Hg (1017.0 mb)
Winds: from the NNE (30 degrees) at 5 MPH (4 knots; 2.1 m/s)
Visibility: 6 or more miles (10+ km)
Ceiling: ceiling and visibility are OK
Clouds: unknown
Weather: no significant weather observed at this time

METAR text: LFKF 240100Z AUTO 05005KT CAVOK 21/17 Q1017
Conditions at: LFKF (FIGARI (AUT) , FR) observed 0100 UTC 24 August 2019
Temperature: 21.0°C (70°F)
Dewpoint: 17.0°C (63°F) [RH = 78%]
Pressure (altimeter): 30.03 inches Hg (1017.0 mb)
Winds: from the NE (50 degrees) at 6 MPH (5 knots; 2.6 m/s)
Visibility: 6 or more miles (10+ km)
Ceiling: ceiling and visibility are OK
Clouds: unknown
Weather: no significant weather observed at this time

METAR text: LFKF 240030Z AUTO 04006KT CAVOK 21/17 Q1017
Conditions at: LFKF (FIGARI (AUT) , FR) observed 0030 UTC 24 August 2019
Temperature: 21.0°C (70°F)
Dewpoint: 17.0°C (63°F) [RH = 78%]
Pressure (altimeter): 30.03 inches Hg (1017.0 mb)
Winds: from the NE (40 degrees) at 7 MPH (6 knots; 3.1 m/s)
Visibility: 6 or more miles (10+ km)
Ceiling: ceiling and visibility are OK
Clouds: unknown
Weather: no significant weather observed at this time

METAR text: LFKF 240000Z AUTO 05005KT CAVOK 21/17 Q1017
Conditions at: LFKF (FIGARI (AUT) , FR) observed 0000 UTC 24 August 2019
Temperature: 21.0°C (70°F)
Dewpoint: 17.0°C (63°F) [RH = 78%]
Pressure (altimeter): 30.03 inches Hg (1017.0 mb)
Winds: from the NE (50 degrees) at 6 MPH (5 knots; 2.6 m/s)
Visibility: 6 or more miles (10+ km)
Ceiling: ceiling and visibility are OK
Clouds: unknown
Weather: no significant weather observed at this time

METAR text: LFKF 232330Z AUTO 04005KT CAVOK 21/17 Q1017
Conditions at: LFKF (FIGARI (AUT) , FR) observed 2330 UTC 23 August 2019
Temperature: 21.0°C (70°F)
Dewpoint: 17.0°C (63°F) [RH = 78%]
Pressure (altimeter): 30.03 inches Hg (1017.0 mb)
Winds: from the NE (40 degrees) at 6 MPH (5 knots; 2.6 m/s)
Visibility: 6 or more miles (10+ km)
Ceiling: ceiling and visibility are OK
Clouds: unknown
Weather: no significant weather observed at this time

METAR text: LFKF 232300Z AUTO 05004KT CAVOK 21/17 Q1017
Conditions at: LFKF (FIGARI (AUT) , FR) observed 2300 UTC 23 August 2019
Temperature: 21.0°C (70°F)
Dewpoint: 17.0°C (63°F) [RH = 78%]
Pressure (altimeter): 30.03 inches Hg (1017.0 mb)
Winds: from the NE (50 degrees) at 5 MPH (4 knots; 2.1 m/s)
Visibility: 6 or more miles (10+ km)
Ceiling: ceiling and visibility are OK
Clouds: unknown
Weather: no significant weather observed at this time

METAR text: LFKF 232230Z AUTO 06004KT CAVOK 22/17 Q1017
Conditions at: LFKF (FIGARI (AUT) , FR) observed 2230 UTC 23 August 2019
Temperature: 22.0°C (72°F)
Dewpoint: 17.0°C (63°F) [RH = 73%]
Pressure (altimeter): 30.03 inches Hg (1017.0 mb)
Winds: from the ENE (60 degrees) at 5 MPH (4 knots; 2.1 m/s)
Visibility: 6 or more miles (10+ km)
Ceiling: ceiling and visibility are OK
Clouds: unknown
Weather: no significant weather observed at this time

METAR text: LFKF 232200Z AUTO 07004KT 040V100 CAVOK 22/17 Q1017
Conditions at: LFKF (FIGARI (AUT) , FR) observed 2200 UTC 23 August 2019
Temperature: 22.0°C (72°F)
Dewpoint: 17.0°C (63°F) [RH = 73%]
Pressure (altimeter): 30.03 inches Hg (1017.0 mb)
Winds: from the ENE (70 degrees) at 5 MPH (4 knots; 2.1 m/s)
Visibility: 6 or more miles (10+ km)
Ceiling: ceiling and visibility are OK
Clouds: unknown
Weather: no significant weather observed at this time

METAR text: LFKF 232130Z AUTO 06004KT CAVOK 22/18 Q1017 NOSIG
Conditions at: LFKF (FIGARI (AUT) , FR) observed 2130 UTC 23 August 2019
Temperature: 22.0°C (72°F)
Dewpoint: 18.0°C (64°F) [RH = 78%]
Pressure (altimeter): 30.03 inches Hg (1017.0 mb)
Winds: from the ENE (60 degrees) at 5 MPH (4 knots; 2.1 m/s)
Visibility: 6 or more miles (10+ km)
Ceiling: ceiling and visibility are OK
Clouds: unknown
Weather: no significant weather observed at this time

METAR text: LFKF 232100Z AUTO 05005KT CAVOK 23/17 Q1018 NOSIG
Conditions at: LFKF (FIGARI (AUT) , FR) observed 2100 UTC 23 August 2019
Temperature: 23.0°C (73°F)
Dewpoint: 17.0°C (63°F) [RH = 69%]
Pressure (altimeter): 30.06 inches Hg (1018.0 mb)
Winds: from the NE (50 degrees) at 6 MPH (5 knots; 2.6 m/s)
Visibility: 6 or more miles (10+ km)
Ceiling: ceiling and visibility are OK
Clouds: unknown
Weather: no significant weather observed at this time

METAR text: LFKF 232030Z AUTO 05006KT CAVOK 23/18 Q1018 NOSIG
Conditions at: LFKF (FIGARI (AUT) , FR) observed 2030 UTC 23 August 2019
Temperature: 23.0°C (73°F)
Dewpoint: 18.0°C (64°F) [RH = 73%]
Pressure (altimeter): 30.06 inches Hg (1018.0 mb)
Winds: from the NE (50 degrees) at 7 MPH (6 knots; 3.1 m/s)
Visibility: 6 or more miles (10+ km)
Ceiling: ceiling and visibility are OK
Clouds: unknown
Weather: no significant weather observed at this time

METAR text: LFKF 232000Z AUTO 06006KT CAVOK 23/17 Q1018 NOSIG
Conditions at: LFKF (FIGARI (AUT) , FR) observed 2000 UTC 23 August 2019
Temperature: 23.0°C (73°F)
Dewpoint: 17.0°C (63°F) [RH = 69%]
Pressure (altimeter): 30.06 inches Hg (1018.0 mb)
Winds: from the ENE (60 degrees) at 7 MPH (6 knots; 3.1 m/s)
Visibility: 6 or more miles (10+ km)
Ceiling: ceiling and visibility are OK
Clouds: unknown
Weather: no significant weather observed at this time

METAR text: LFKF 231930Z AUTO 05005KT CAVOK 23/17 Q1018 NOSIG
Conditions at: LFKF (FIGARI (AUT) , FR) observed 1930 UTC 23 August 2019
Temperature: 23.0°C (73°F)
Dewpoint: 17.0°C (63°F) [RH = 69%]
Pressure (altimeter): 30.06 inches Hg (1018.0 mb)
Winds: from the NE (50 degrees) at 6 MPH (5 knots; 2.6 m/s)
Visibility: 6 or more miles (10+ km)
Ceiling: ceiling and visibility are OK
Clouds: unknown
Weather: no significant weather observed at this time

METAR text: LFKF 231900Z AUTO 06005KT CAVOK 24/17 Q1018 NOSIG
Conditions at: LFKF (FIGARI (AUT) , FR) observed 1900 UTC 23 August 2019
Temperature: 24.0°C (75°F)
Dewpoint: 17.0°C (63°F) [RH = 65%]
Pressure (altimeter): 30.06 inches Hg (1018.0 mb)
Winds: from the ENE (60 degrees) at 6 MPH (5 knots; 2.6 m/s)
Visibility: 6 or more miles (10+ km)
Ceiling: ceiling and visibility are OK
Clouds: unknown
Weather: no significant weather observed at this time

METAR text: LFKF 231830Z AUTO 06006KT 040V100 CAVOK 25/17 Q1017 NOSIG
Conditions at: LFKF (FIGARI (AUT) , FR) observed 1830 UTC 23 August 2019
Temperature: 25.0°C (77°F)
Dewpoint: 17.0°C (63°F) [RH = 61%]
Pressure (altimeter): 30.03 inches Hg (1017.0 mb)
Winds: from the ENE (60 degrees) at 7 MPH (6 knots; 3.1 m/s)
Visibility: 6 or more miles (10+ km)
Ceiling: ceiling and visibility are OK
Clouds: unknown
Weather: no significant weather observed at this time

METAR text: LFKF 231800Z AUTO 06007KT 040V110 CAVOK 26/18 Q1017 NOSIG
Conditions at: LFKF (FIGARI (AUT) , FR) observed 1800 UTC 23 August 2019
Temperature: 26.0°C (79°F)
Dewpoint: 18.0°C (64°F) [RH = 61%]
Pressure (altimeter): 30.03 inches Hg (1017.0 mb)
Winds: from the ENE (60 degrees) at 8 MPH (7 knots; 3.6 m/s)
Visibility: 6 or more miles (10+ km)
Ceiling: ceiling and visibility are OK
Clouds: unknown
Weather: no significant weather observed at this time

METAR text: LFKF 231730Z AUTO 05008KT 010V080 CAVOK 27/18 Q1017 NOSIG
Conditions at: LFKF (FIGARI (AUT) , FR) observed 1730 UTC 23 August 2019
Temperature: 27.0°C (81°F)
Dewpoint: 18.0°C (64°F) [RH = 58%]
Pressure (altimeter): 30.03 inches Hg (1017.0 mb)
Winds: from the NE (50 degrees) at 9 MPH (8 knots; 4.1 m/s)
Visibility: 6 or more miles (10+ km)
Ceiling: ceiling and visibility are OK
Clouds: unknown
Weather: no significant weather observed at this time

METAR text: LFKF 231700Z AUTO 06006KT 010V110 CAVOK 27/19 Q1017 NOSIG
Conditions at: LFKF (FIGARI (AUT) , FR) observed 1700 UTC 23 August 2019
Temperature: 27.0°C (81°F)
Dewpoint: 19.0°C (66°F) [RH = 62%]
Pressure (altimeter): 30.03 inches Hg (1017.0 mb)
Winds: from the ENE (60 degrees) at 7 MPH (6 knots; 3.1 m/s)
Visibility: 6 or more miles (10+ km)
Ceiling: ceiling and visibility are OK
Clouds: unknown
Weather: no significant weather observed at this time

METAR text: LFKF 231630Z AUTO 05009KT 010V090 CAVOK 28/19 Q1017 NOSIG
Conditions at: LFKF (FIGARI (AUT) , FR) observed 1630 UTC 23 August 2019
Temperature: 28.0°C (82°F)
Dewpoint: 19.0°C (66°F) [RH = 58%]
Pressure (altimeter): 30.03 inches Hg (1017.0 mb)
Winds: from the NE (50 degrees) at 10 MPH (9 knots; 4.6 m/s)
Visibility: 6 or more miles (10+ km)
Ceiling: ceiling and visibility are OK
Clouds: unknown
Weather: no significant weather observed at this time

METAR text: LFKF 231600Z AUTO 08008KT 030V130 9999 VCTS ///CB 29/18 Q1017 BECMG NSW NSC
Conditions at: LFKF (FIGARI (AUT) , FR) observed 1600 UTC 23 August 2019
Temperature: 29.0°C (84°F)
Dewpoint: 18.0°C (64°F) [RH = 52%]
Pressure (altimeter): 30.03 inches Hg (1017.0 mb)
Winds: from the E (80 degrees) at 9 MPH (8 knots; 4.1 m/s)
Visibility: 6 or more miles (10+ km)
Ceiling: unknown
Clouds: missing
Weather: VCTS  (thunderstorm in vicinity)

METAR text: LFKF 231530Z AUTO 06008KT 350V110 9999 FEW052/// ///CB 30/18 Q1017 BECMG NSC
Conditions at: LFKF (FIGARI (AUT) , FR) observed 1530 UTC 23 August 2019
Temperature: 30.0°C (86°F)
Dewpoint: 18.0°C (64°F) [RH = 49%]
Pressure (altimeter): 30.03 inches Hg (1017.0 mb)
Winds: from the ENE (60 degrees) at 9 MPH (8 knots; 4.1 m/s)
Visibility: 6 or more miles (10+ km)
Ceiling: at least 12,000 feet AGL
Clouds: few clouds at 5200 feet AGL
Weather: no significant weather observed at this time

METAR text: LFKF 231500Z AUTO 06009KT 020V110 9999 FEW056/// ///TCU 30/17 Q1017 BECMG FEW030CB BKN100
Conditions at: LFKF (FIGARI (AUT) , FR) observed 1500 UTC 23 August 2019
Temperature: 30.0°C (86°F)
Dewpoint: 17.0°C (63°F) [RH = 46%]
Pressure (altimeter): 30.03 inches Hg (1017.0 mb)
Winds: from the ENE (60 degrees) at 10 MPH (9 knots; 4.6 m/s)
Visibility: 6 or more miles (10+ km)
Ceiling: at least 12,000 feet AGL
Clouds: few clouds at 5600 feet AGL
Weather: no significant weather observed at this time

METAR text: LFKF 231430Z AUTO 04008KT 360V090 9999 SCT058 30/16 Q1017 BECMG FEW030CB BKN100
Conditions at: LFKF (FIGARI (AUT) , FR) observed 1430 UTC 23 August 2019
Temperature: 30.0°C (86°F)
Dewpoint: 16.0°C (61°F) [RH = 43%]
Pressure (altimeter): 30.03 inches Hg (1017.0 mb)
Winds: from the NE (40 degrees) at 9 MPH (8 knots; 4.1 m/s)
Visibility: 6 or more miles (10+ km)
Ceiling: at least 12,000 feet AGL
Clouds: scattered clouds at 5800 feet AGL
Weather: no significant weather observed at this time

METAR text: LFKF 231400Z AUTO 07006KT 360V120 9999 BKN054/// ///CB 31/17 Q1017 TEMPO TS BECMG SCT030 BKN130
Conditions at: LFKF (FIGARI (AUT) , FR) observed 1400 UTC 23 August 2019
Temperature: 31.0°C (88°F)
Dewpoint: 17.0°C (63°F) [RH = 43%]
Pressure (altimeter): 30.03 inches Hg (1017.0 mb)
Winds: from the ENE (70 degrees) at 7 MPH (6 knots; 3.1 m/s)
Visibility: 6 or more miles (10+ km)
Ceiling: 5400 feet AGL
Clouds: broken clouds at 5400 feet AGL
Weather: no significant weather observed at this time

METAR text: LFKF 231330Z AUTO VRB05KT CAVOK 31/18 Q1017 TEMPO TS FEW030CB BKN040
Conditions at: LFKF (FIGARI (AUT) , FR) observed 1330 UTC 23 August 2019
Temperature: 31.0°C (88°F)
Dewpoint: 18.0°C (64°F) [RH = 46%]
Pressure (altimeter): 30.03 inches Hg (1017.0 mb)
Winds: variable direction winds at 6 MPH (5 knots; 2.6 m/s)
Visibility: 6 or more miles (10+ km)
Ceiling: ceiling and visibility are OK
Clouds: unknown
Weather: no significant weather observed at this time

METAR text: LFKF 231300Z AUTO 04009KT 350V080 9999 VCTS SCT040/// BKN049/// ///CB 30/18 Q1017 TEMPO 09015G25KT 4000 +TSRA
Conditions at: LFKF (FIGARI (AUT) , FR) observed 1300 UTC 23 August 2019
Temperature: 30.0°C (86°F)
Dewpoint: 18.0°C (64°F) [RH = 49%]
Pressure (altimeter): 30.03 inches Hg (1017.0 mb)
Winds: from the NE (40 degrees) at 10 MPH (9 knots; 4.6 m/s)
Visibility: 6 or more miles (10+ km)
Ceiling: 4900 feet AGL
Clouds: scattered clouds at 4000 feet AGL
broken clouds at 4900 feet AGL
Weather: VCTS  (thunderstorm in vicinity)

METAR text: LFKF 231230Z AUTO 09008KT 050V120 9999 BKN036/// BKN043/// BKN052/// ///CB 31/19 Q1018 TEMPO 09015G25KT 4000 +TSRA
Conditions at: LFKF (FIGARI (AUT) , FR) observed 1230 UTC 23 August 2019
Temperature: 31.0°C (88°F)
Dewpoint: 19.0°C (66°F) [RH = 49%]
Pressure (altimeter): 30.06 inches Hg (1018.0 mb)
Winds: from the E (90 degrees) at 9 MPH (8 knots; 4.1 m/s)
Visibility: 6 or more miles (10+ km)
Ceiling: 3600 feet AGL
Clouds: broken clouds at 3600 feet AGL
broken clouds at 4300 feet AGL
broken clouds at 5200 feet AGL
Weather: no significant weather observed at this time

METAR text: LFKF 231200Z AUTO 04010KT 010V080 9999 SCT029/// BKN034/// BKN046/// ///CB 28/20 Q1018 TEMPO 09015G25KT 4000 +TSRA
Conditions at: LFKF (FIGARI (AUT) , FR) observed 1200 UTC 23 August 2019
Temperature: 28.0°C (82°F)
Dewpoint: 20.0°C (68°F) [RH = 62%]
Pressure (altimeter): 30.06 inches Hg (1018.0 mb)
Winds: from the NE (40 degrees) at 12 MPH (10 knots; 5.1 m/s)
Visibility: 6 or more miles (10+ km)
Ceiling: 3400 feet AGL
Clouds: scattered clouds at 2900 feet AGL
broken clouds at 3400 feet AGL
broken clouds at 4600 feet AGL
Weather: no significant weather observed at this time

METAR text: LFKF 231130Z AUTO VRB05KT 9999 VCTS FEW045/// SCT054/// BKN200/// ///CB 32/18 Q1018 TEMPO 09015G25KT 4000 +TSRA
Conditions at: LFKF (FIGARI (AUT) , FR) observed 1130 UTC 23 August 2019
Temperature: 32.0°C (90°F)
Dewpoint: 18.0°C (64°F) [RH = 43%]
Pressure (altimeter): 30.06 inches Hg (1018.0 mb)
Winds: variable direction winds at 6 MPH (5 knots; 2.6 m/s)
Visibility: 6 or more miles (10+ km)
Ceiling: 20000 feet AGL
Clouds: few clouds at 4500 feet AGL
scattered clouds at 5400 feet AGL
broken clouds at 20000 feet AGL
Weather: VCTS  (thunderstorm in vicinity)

METAR text: LFKF 231100Z AUTO VRB04KT 9999 TS FEW050/// SCT140/// BKN190/// ///CB 30/18 Q1018 TEMPO 09015G25KT 4000 +TSRA
Conditions at: LFKF (FIGARI (AUT) , FR) observed 1100 UTC 23 August 2019
Temperature: 30.0°C (86°F)
Dewpoint: 18.0°C (64°F) [RH = 49%]
Pressure (altimeter): 30.06 inches Hg (1018.0 mb)
Winds: variable direction winds at 5 MPH (4 knots; 2.1 m/s)
Visibility: 6 or more miles (10+ km)
Ceiling: 19000 feet AGL
Clouds: few clouds at 5000 feet AGL
scattered clouds at 14000 feet AGL
broken clouds at 19000 feet AGL
Weather: TS  (thunderstorm)

METAR text: LFKF 231030Z AUTO VRB04KT 9999 TS FEW044/// SCT140/// ///CB 31/18 Q1018 TEMPO 09015G25KT 4000 +TSRA
Conditions at: LFKF (FIGARI (AUT) , FR) observed 1030 UTC 23 August 2019
Temperature: 31.0°C (88°F)
Dewpoint: 18.0°C (64°F) [RH = 46%]
Pressure (altimeter): 30.06 inches Hg (1018.0 mb)
Winds: variable direction winds at 5 MPH (4 knots; 2.1 m/s)
Visibility: 6 or more miles (10+ km)
Ceiling: at least 12,000 feet AGL
Clouds: few clouds at 4400 feet AGL
scattered clouds at 14000 feet AGL
Weather: TS  (thunderstorm)

METAR text: LFKF 231000Z AUTO 13004KT 070V210 9999 SCT042 SCT050 BKN140 30/18 Q1018 TEMPO 09015G25KT 4000 +TSRA SCT030CB
Conditions at: LFKF (FIGARI (AUT) , FR) observed 1000 UTC 23 August 2019
Temperature: 30.0°C (86°F)
Dewpoint: 18.0°C (64°F) [RH = 49%]
Pressure (altimeter): 30.06 inches Hg (1018.0 mb)
Winds: from the SE (130 degrees) at 5 MPH (4 knots; 2.1 m/s)
Visibility: 6 or more miles (10+ km)
Ceiling: 14000 feet AGL
Clouds: scattered clouds at 4200 feet AGL
scattered clouds at 5000 feet AGL
broken clouds at 14000 feet AGL
Weather: no significant weather observed at this time

METAR text: LFKF 230930Z AUTO 09005KT 010V160 9999 BKN039 BKN046 BKN054 30/19 Q1018 TEMPO 09015G25KT 4000 +TSRA SCT030CB
Conditions at: LFKF (FIGARI (AUT) , FR) observed 0930 UTC 23 August 2019
Temperature: 30.0°C (86°F)
Dewpoint: 19.0°C (66°F) [RH = 52%]
Pressure (altimeter): 30.06 inches Hg (1018.0 mb)
Winds: from the E (90 degrees) at 6 MPH (5 knots; 2.6 m/s)
Visibility: 6 or more miles (10+ km)
Ceiling: 3900 feet AGL
Clouds: broken clouds at 3900 feet AGL
broken clouds at 4600 feet AGL
broken clouds at 5400 feet AGL
Weather: no significant weather observed at this time

METAR text: LFKF 230900Z AUTO 03004KT 330V070 9999 BKN036 BKN042 29/20 Q1018 TEMPO TS FEW030CB BKN040
Conditions at: LFKF (FIGARI (AUT) , FR) observed 0900 UTC 23 August 2019
Temperature: 29.0°C (84°F)
Dewpoint: 20.0°C (68°F) [RH = 58%]
Pressure (altimeter): 30.06 inches Hg (1018.0 mb)
Winds: from the NNE (30 degrees) at 5 MPH (4 knots; 2.1 m/s)
Visibility: 6 or more miles (10+ km)
Ceiling: 3600 feet AGL
Clouds: broken clouds at 3600 feet AGL
broken clouds at 4200 feet AGL
Weather: no significant weather observed at this time

METAR text: LFKF 230830Z AUTO 05007KT 350V110 CAVOK 29/21 Q1018 TEMPO TS FEW030CB BKN040
Conditions at: LFKF (FIGARI (AUT) , FR) observed 0830 UTC 23 August 2019
Temperature: 29.0°C (84°F)
Dewpoint: 21.0°C (70°F) [RH = 62%]
Pressure (altimeter): 30.06 inches Hg (1018.0 mb)
Winds: from the NE (50 degrees) at 8 MPH (7 knots; 3.6 m/s)
Visibility: 6 or more miles (10+ km)
Ceiling: ceiling and visibility are OK
Clouds: unknown
Weather: no significant weather observed at this time

METAR text: LFKF 230800Z AUTO 05006KT 010V090 CAVOK 28/20 Q1018 TEMPO TSRA SCT030CB BKN040
Conditions at: LFKF (FIGARI (AUT) , FR) observed 0800 UTC 23 August 2019
Temperature: 28.0°C (82°F)
Dewpoint: 20.0°C (68°F) [RH = 62%]
Pressure (altimeter): 30.06 inches Hg (1018.0 mb)
Winds: from the NE (50 degrees) at 7 MPH (6 knots; 3.1 m/s)
Visibility: 6 or more miles (10+ km)
Ceiling: ceiling and visibility are OK
Clouds: unknown
Weather: no significant weather observed at this time

METAR text: LFKF 230730Z AUTO 06007KT 020V100 CAVOK 27/20 Q1018 TEMPO TSRA SCT030CB BKN040
Conditions at: LFKF (FIGARI (AUT) , FR) observed 0730 UTC 23 August 2019
Temperature: 27.0°C (81°F)
Dewpoint: 20.0°C (68°F) [RH = 66%]
Pressure (altimeter): 30.06 inches Hg (1018.0 mb)
Winds: from the ENE (60 degrees) at 8 MPH (7 knots; 3.6 m/s)
Visibility: 6 or more miles (10+ km)
Ceiling: ceiling and visibility are OK
Clouds: unknown
Weather: no significant weather observed at this time

METAR text: LFKF 230700Z AUTO 08005KT 040V110 CAVOK 26/20 Q1018 TEMPO TSRA SCT030CB BKN040
Conditions at: LFKF (FIGARI (AUT) , FR) observed 0700 UTC 23 August 2019
Temperature: 26.0°C (79°F)
Dewpoint: 20.0°C (68°F) [RH = 70%]
Pressure (altimeter): 30.06 inches Hg (1018.0 mb)
Winds: from the E (80 degrees) at 6 MPH (5 knots; 2.6 m/s)
Visibility: 6 or more miles (10+ km)
Ceiling: ceiling and visibility are OK
Clouds: unknown
Weather: no significant weather observed at this time

METAR text: LFKF 230630Z AUTO 10003KT 050V130 CAVOK 23/20 Q1018 TEMPO TSRA SCT030CB BKN040
Conditions at: LFKF (FIGARI (AUT) , FR) observed 0630 UTC 23 August 2019
Temperature: 23.0°C (73°F)
Dewpoint: 20.0°C (68°F) [RH = 83%]
Pressure (altimeter): 30.06 inches Hg (1018.0 mb)
Winds: from the E (100 degrees) at 3 MPH (3 knots; 1.5 m/s)
Visibility: 6 or more miles (10+ km)
Ceiling: ceiling and visibility are OK
Clouds: unknown
Weather: no significant weather observed at this time

METAR text: LFKF 230600Z AUTO VRB01KT CAVOK 21/20 Q1018 TEMPO TSRA SCT030CB BKN040
Conditions at: LFKF (FIGARI (AUT) , FR) observed 0600 UTC 23 August 2019
Temperature: 21.0°C (70°F)
Dewpoint: 20.0°C (68°F) [RH = 94%]
Pressure (altimeter): 30.06 inches Hg (1018.0 mb)
Winds: variable direction winds at 1 MPH (1 knots; 0.5 m/s)
Visibility: 6 or more miles (10+ km)
Ceiling: ceiling and visibility are OK
Clouds: unknown
Weather: no significant weather observed at this time

METAR text: LFKF 230530Z AUTO VRB01KT CAVOK 20/19 Q1017 TEMPO TSRA SCT030CB BKN040
Conditions at: LFKF (FIGARI (AUT) , FR) observed 0530 UTC 23 August 2019
Temperature: 20.0°C (68°F)
Dewpoint: 19.0°C (66°F) [RH = 94%]
Pressure (altimeter): 30.03 inches Hg (1017.0 mb)
Winds: variable direction winds at 1 MPH (1 knots; 0.5 m/s)
Visibility: 6 or more miles (10+ km)
Ceiling: ceiling and visibility are OK
Clouds: unknown
Weather: no significant weather observed at this time

METAR text: LFKF 230500Z AUTO 06003KT 020V090 7000 NSC 19/18 Q1017 TEMPO TSRA SCT030CB BKN040
Conditions at: LFKF (FIGARI (AUT) , FR) observed 0500 UTC 23 August 2019
Temperature: 19.0°C (66°F)
Dewpoint: 18.0°C (64°F) [RH = 94%]
Pressure (altimeter): 30.03 inches Hg (1017.0 mb)
Winds: from the ENE (60 degrees) at 3 MPH (3 knots; 1.5 m/s)
Visibility: 4 miles ( 7 km)
Ceiling: at least 12,000 feet AGL
Clouds: sky clear below 12,000 feet AGL
Weather: no significant weather observed at this time

METAR text: LFKF 230430Z AUTO VRB02KT 7000 NSC 19/18 Q1017 TEMPO TSRA SCT030CB BKN040
Conditions at: LFKF (FIGARI (AUT) , FR) observed 0430 UTC 23 August 2019
Temperature: 19.0°C (66°F)
Dewpoint: 18.0°C (64°F) [RH = 94%]
Pressure (altimeter): 30.03 inches Hg (1017.0 mb)
Winds: variable direction winds at 2 MPH (2 knots; 1.0 m/s)
Visibility: 4 miles ( 7 km)
Ceiling: at least 12,000 feet AGL
Clouds: sky clear below 12,000 feet AGL
Weather: no significant weather observed at this time

METAR text: LFKF 230400Z AUTO 00000KT 7000 NSC 20/19 Q1017 TEMPO TSRA SCT030CB BKN040
Conditions at: LFKF (FIGARI (AUT) , FR) observed 0400 UTC 23 August 2019
Temperature: 20.0°C (68°F)
Dewpoint: 19.0°C (66°F) [RH = 94%]
Pressure (altimeter): 30.03 inches Hg (1017.0 mb)
Winds: calm
Visibility: 4 miles ( 7 km)
Ceiling: at least 12,000 feet AGL
Clouds: sky clear below 12,000 feet AGL
Weather: no significant weather observed at this time

METAR text: LFKF 230330Z AUTO 33004KT 300V090 CAVOK 21/19 Q1017 TEMPO TSRA SCT030CB BKN040
Conditions at: LFKF (FIGARI (AUT) , FR) observed 0330 UTC 23 August 2019
Temperature: 21.0°C (70°F)
Dewpoint: 19.0°C (66°F) [RH = 88%]
Pressure (altimeter): 30.03 inches Hg (1017.0 mb)
Winds: from the NNW (330 degrees) at 5 MPH (4 knots; 2.1 m/s)
Visibility: 6 or more miles (10+ km)
Ceiling: ceiling and visibility are OK
Clouds: unknown
Weather: no significant weather observed at this time

METAR text: LFKF 230300Z AUTO 33003KT 300V010 7000 NSC 21/20 Q1017 TEMPO VRB15G25KT TSRA SCT030CB BKN040
Conditions at: LFKF (FIGARI (AUT) , FR) observed 0300 UTC 23 August 2019
Temperature: 21.0°C (70°F)
Dewpoint: 20.0°C (68°F) [RH = 94%]
Pressure (altimeter): 30.03 inches Hg (1017.0 mb)
Winds: from the NNW (330 degrees) at 3 MPH (3 knots; 1.5 m/s)
Visibility: 4 miles ( 7 km)
Ceiling: at least 12,000 feet AGL
Clouds: sky clear below 12,000 feet AGL
Weather: no significant weather observed at this time

METAR text: LFKF 230230Z AUTO 00000KT 6000 NSC 21/20 Q1017
Conditions at: LFKF (FIGARI (AUT) , FR) observed 0230 UTC 23 August 2019
Temperature: 21.0°C (70°F)
Dewpoint: 20.0°C (68°F) [RH = 94%]
Pressure (altimeter): 30.03 inches Hg (1017.0 mb)
Winds: calm
Visibility: 4 miles ( 6 km)
Ceiling: at least 12,000 feet AGL
Clouds: sky clear below 12,000 feet AGL
Weather: no significant weather observed at this time

METAR text: LFKF 230200Z AUTO VRB02KT 9000 NSC 22/20 Q1017
Conditions at: LFKF (FIGARI (AUT) , FR) observed 0200 UTC 23 August 2019
Temperature: 22.0°C (72°F)
Dewpoint: 20.0°C (68°F) [RH = 88%]
Pressure (altimeter): 30.03 inches Hg (1017.0 mb)
Winds: variable direction winds at 2 MPH (2 knots; 1.0 m/s)
Visibility: 6 miles ( 9 km)
Ceiling: at least 12,000 feet AGL
Clouds: sky clear below 12,000 feet AGL
Weather: no significant weather observed at this time

Forecast for: LFKF (FIGARI (AUT) , FR)
Text: TAF LFKF 240800Z 2409/2509 08010KT 9999 SCT050
Forecast period: 0900 to 2100 UTC 24 August 2019
Forecast type: FROM: standard forecast or significant change
Winds: from the E (80 degrees) at 12 MPH (10 knots; 5.1 m/s)
Visibility: 6 or more miles 10+ km)
Ceiling: at least 12,000 feet AGL
Clouds: scattered clouds at 5000 feet AGL
Weather: no significant weather forecast for this period
Text: TEMPO 2410/2416 FEW035CB BKN045 BKN100
Forecast period: 1000 to 1600 UTC 24 August 2019
Forecast type: TEMPORARY: The following changes expected for less than half the time period
Visibility: missing
Ceiling: 4500 feet AGL
Clouds: few clouds at 3500 feet AGL
broken clouds at 4500 feet AGL
broken clouds at 10000 feet AGL
Weather: no significant weather forecast for this period
Text: PROB30
Forecast period: 1100 to 1500 UTC 24 August 2019
Forecast type: TEMPORARY: The following changes expected for less than half the time period
Winds: variable direction winds at 12 MPH (10 knots; 5.1 m/s)
gusting to 23 MPH (20 knots; 10.3 m/s)
Visibility: missing
Ceiling: 4000 feet AGL
Clouds: scattered clouds at 3000 feet AGL
broken clouds at 4000 feet AGL
broken clouds at 9000 feet AGL
Weather: TS  (thunderstorm)
Text: TEMPO 2411/2415 VRB10G20KT TS SCT030CB BKN040 BKN090
Forecast period: 2100 UTC 24 August 2019 to 0900 UTC 25 August 2019
Forecast type: BECOMING: Conditions expected to become as follows by 0000 UTC 25 August 2019
Winds: variable direction winds at 3 MPH (3 knots; 1.5 m/s)
Visibility: 6 or more miles 10+ km)
Ceiling: unknown
Clouds: missing
Weather: NSW  (no significant weather)